createdAt,value
2019-03-18T00:00:27.607Z,7.47
2019-03-18T00:02:57.160Z,10.93
2019-03-18T00:05:26.446Z,5.60
2019-03-18T00:07:56.145Z,5.62
2019-03-18T00:10:25.506Z,7.70
2019-03-18T00:12:55.120Z,10.30
2019-03-18T00:15:24.567Z,6.92
2019-03-18T00:17:53.843Z,5.35
2019-03-18T00:20:23.426Z,9.60
2019-03-18T00:22:53.039Z,4.55
2019-03-18T00:25:22.638Z,7.70
2019-03-18T00:27:52.256Z,3.92
2019-03-18T00:30:22.064Z,5.87
2019-03-18T00:32:51.339Z,7.58
2019-03-18T00:35:20.616Z,9.53
2019-03-18T00:37:49.877Z,9.98
2019-03-18T00:40:20.453Z,6.35
2019-03-18T00:42:49.729Z,4.80
2019-03-18T00:45:18.997Z,9.65
2019-03-18T00:47:48.612Z,4.20
2019-03-18T00:50:17.881Z,7.55
2019-03-18T00:52:47.467Z,11.30
2019-03-18T00:55:16.857Z,6.00
2019-03-18T00:57:46.301Z,10.10
2019-03-18T01:00:19.173Z,8.38
2019-03-18T01:02:49.803Z,9.28
2019-03-18T01:05:19.410Z,7.20
2019-03-18T01:07:48.753Z,7.58
2019-03-18T01:10:18.470Z,8.93
2019-03-18T01:12:48.990Z,11.20
2019-03-18T01:15:27.944Z,8.15
2019-03-18T01:17:49.246Z,7.37
2019-03-18T01:20:19.598Z,7.75
2019-03-18T01:22:49.166Z,10.53
2019-03-18T01:25:18.773Z,6.60
2019-03-18T01:27:48.095Z,8.83
2019-03-18T01:30:17.392Z,12.78
2019-03-18T01:32:46.665Z,7.12
2019-03-18T01:35:16.284Z,5.85
2019-03-18T01:37:45.891Z,11.57
2019-03-18T01:40:15.149Z,7.00
2019-03-18T01:42:44.448Z,8.23
2019-03-18T01:45:14.033Z,6.28
2019-03-18T01:47:43.305Z,13.18
2019-03-18T01:50:14.686Z,8.88
2019-03-18T01:52:44.030Z,9.28
2019-03-18T01:55:13.302Z,10.82
2019-03-18T01:57:42.846Z,6.22
2019-03-18T02:00:14.470Z,9.53
2019-03-18T02:02:44.125Z,9.50
2019-03-18T02:05:14.457Z,11.95
2019-03-18T02:07:44.045Z,11.65
2019-03-18T02:10:15.532Z,14.73
2019-03-18T02:12:45.210Z,12.43
2019-03-18T02:15:15.519Z,7.60
2019-03-18T02:17:44.813Z,9.60
2019-03-18T02:20:19.214Z,11.05
2019-03-18T02:22:48.042Z,10.60
2019-03-18T02:25:17.314Z,6.90
2019-03-18T02:27:46.852Z,8.00
2019-03-18T02:30:18.747Z,10.15
2019-03-18T02:32:48.326Z,11.18
2019-03-18T02:35:17.601Z,13.08
2019-03-18T02:37:46.897Z,12.37
2019-03-18T02:40:16.228Z,8.13
2019-03-18T02:42:45.493Z,9.15
2019-03-18T02:45:15.061Z,9.73
2019-03-18T02:47:44.639Z,10.63
2019-03-18T02:50:13.910Z,11.38
2019-03-18T02:52:43.440Z,7.78
2019-03-18T02:55:12.709Z,10.13
2019-03-18T02:57:42.262Z,14.33
2019-03-18T03:00:13.125Z,12.88
2019-03-18T03:02:42.430Z,8.90
2019-03-18T03:05:13.064Z,6.80
2019-03-18T03:07:42.393Z,6.45
2019-03-18T03:10:13.193Z,7.78
2019-03-18T03:12:42.477Z,12.70
2019-03-18T03:15:14.009Z,11.57
2019-03-18T03:17:43.731Z,9.68
2019-03-18T03:20:13.253Z,12.82
2019-03-18T03:22:42.853Z,10.38
2019-03-18T03:25:12.204Z,7.60
2019-03-18T03:27:41.768Z,8.55
2019-03-18T03:30:15.622Z,8.00
2019-03-18T03:32:45.181Z,7.60
2019-03-18T03:35:15.010Z,6.75
2019-03-18T03:37:44.331Z,8.10
2019-03-18T03:40:13.796Z,15.20
2019-03-18T03:42:43.224Z,7.78
2019-03-18T03:45:14.574Z,10.48
2019-03-18T03:47:43.902Z,7.22
2019-03-18T03:50:14.239Z,8.18
2019-03-18T03:52:43.516Z,13.38
2019-03-18T03:55:13.638Z,7.08
2019-03-18T03:57:42.912Z,8.38
2019-03-18T04:00:17.072Z,13.25
2019-03-18T04:02:46.355Z,9.20
2019-03-18T04:05:15.907Z,12.75
2019-03-18T04:07:45.281Z,9.75
2019-03-18T04:10:15.602Z,8.18
2019-03-18T04:12:44.875Z,9.68
2019-03-18T04:15:15.446Z,9.73
2019-03-18T04:17:44.822Z,9.38
2019-03-18T04:20:15.596Z,8.78
2019-03-18T04:22:44.850Z,6.92
2019-03-18T04:25:14.151Z,7.70
2019-03-18T04:27:43.509Z,10.30
2019-03-18T04:30:15.956Z,11.48
2019-03-18T04:32:45.247Z,11.12
2019-03-18T04:35:14.510Z,11.18
2019-03-18T04:37:43.844Z,13.85
2019-03-18T04:40:13.612Z,10.70
2019-03-18T04:42:42.884Z,11.38
2019-03-18T04:45:12.494Z,11.88
2019-03-18T04:47:42.112Z,12.68
2019-03-18T04:50:12.640Z,16.90
2019-03-18T04:52:42.261Z,16.95
2019-03-18T04:55:11.533Z,18.65
2019-03-18T04:57:40.829Z,14.60
2019-03-18T05:00:12.043Z,16.17
2019-03-18T05:02:41.339Z,17.40
2019-03-18T05:05:10.594Z,16.45
2019-03-18T05:07:39.887Z,20.82
2019-03-18T05:10:10.312Z,14.65
2019-03-18T05:12:39.983Z,16.93
2019-03-18T05:15:11.005Z,17.32
2019-03-18T05:17:40.273Z,15.23
2019-03-18T05:20:10.999Z,17.07
2019-03-18T05:22:40.297Z,23.05
2019-03-18T05:25:10.405Z,18.32
2019-03-18T05:27:39.689Z,22.05
2019-03-18T05:30:13.304Z,21.52
2019-03-18T05:32:42.628Z,17.42
2019-03-18T05:35:12.949Z,25.50
2019-03-18T05:37:42.234Z,21.73
2019-03-18T05:40:11.524Z,25.45
2019-03-18T05:42:41.053Z,20.60
2019-03-18T05:45:11.811Z,29.72
2019-03-18T05:47:41.401Z,27.32
2019-03-18T05:50:11.625Z,38.98
2019-03-18T05:52:40.903Z,31.97
2019-03-18T05:55:10.524Z,34.53
2019-03-18T05:57:41.166Z,35.88
2019-03-18T06:00:14.974Z,39.67
2019-03-18T06:02:46.873Z,34.53
2019-03-18T06:05:15.249Z,34.43
2019-03-18T06:07:44.772Z,31.33
2019-03-18T06:10:14.433Z,33.60
2019-03-18T06:12:43.730Z,35.48
2019-03-18T06:15:13.483Z,40.83
2019-03-18T06:17:52.242Z,38.10
2019-03-18T06:20:14.056Z,31.00
2019-03-18T06:22:43.325Z,39.60
2019-03-18T06:25:12.622Z,48.38
2019-03-18T06:27:42.320Z,35.92
2019-03-18T06:30:13.926Z,33.30
2019-03-18T06:32:43.263Z,31.48
2019-03-18T06:35:12.713Z,35.80
2019-03-18T06:37:42.258Z,35.75
2019-03-18T06:40:13.324Z,32.93
2019-03-18T06:42:42.608Z,34.30
2019-03-18T06:45:13.034Z,33.20
2019-03-18T06:47:42.319Z,34.60
2019-03-18T06:50:12.429Z,37.75
2019-03-18T06:52:41.733Z,43.68
2019-03-18T06:55:11.096Z,31.55
2019-03-18T06:57:40.365Z,34.88
2019-03-18T07:00:16.541Z,36.13
2019-03-18T07:02:46.140Z,38.30
2019-03-18T07:05:15.425Z,31.85
2019-03-18T07:07:45.048Z,30.23
2019-03-18T07:10:14.502Z,33.35
2019-03-18T07:12:43.797Z,41.40
2019-03-18T07:15:13.463Z,30.40
2019-03-18T07:17:42.761Z,39.33
2019-03-18T07:20:13.476Z,32.28
2019-03-18T07:22:43.004Z,30.48
2019-03-18T07:25:12.552Z,30.00
2019-03-18T07:27:43.139Z,34.70
2019-03-18T07:30:16.480Z,29.02
2019-03-18T07:32:45.763Z,28.55
2019-03-18T07:35:15.340Z,30.27
2019-03-18T07:37:44.618Z,31.30
2019-03-18T07:40:16.045Z,36.10
2019-03-18T07:42:45.593Z,33.45
2019-03-18T07:45:16.077Z,28.23
2019-03-18T07:47:45.973Z,40.55
2019-03-18T07:50:15.836Z,30.77
2019-03-18T07:52:45.112Z,29.87
2019-03-18T07:55:14.389Z,29.98
2019-03-18T07:57:43.662Z,25.88
2019-03-18T08:00:14.090Z,32.98
2019-03-18T08:02:43.373Z,26.42
2019-03-18T08:05:13.736Z,27.20
2019-03-18T08:07:43.028Z,22.35
2019-03-18T08:10:13.262Z,25.52
2019-03-18T08:12:43.523Z,21.12
2019-03-18T08:15:13.889Z,27.42
2019-03-18T08:17:43.496Z,40.58
2019-03-18T08:20:13.339Z,33.58
2019-03-18T08:22:42.663Z,24.57
2019-03-18T08:25:12.189Z,25.08
2019-03-18T08:27:41.457Z,30.37
2019-03-18T08:30:15.843Z,23.92
2019-03-18T08:32:45.110Z,31.45
2019-03-18T08:35:14.408Z,29.45
2019-03-18T08:37:43.700Z,37.93
2019-03-18T08:40:13.312Z,27.05
2019-03-18T08:42:42.869Z,30.30
2019-03-18T08:45:15.174Z,27.50
2019-03-18T08:47:44.467Z,19.17
2019-03-18T08:50:13.830Z,24.30
2019-03-18T08:52:43.197Z,21.70
2019-03-18T08:55:12.944Z,22.82
2019-03-18T08:57:42.248Z,22.70
2019-03-18T09:00:16.146Z,24.27
2019-03-18T09:02:45.433Z,23.42
2019-03-18T09:05:14.960Z,27.85
2019-03-18T09:07:44.498Z,26.65
2019-03-18T09:10:15.172Z,24.95
2019-03-18T09:12:44.543Z,24.27
2019-03-18T09:15:14.257Z,25.05
2019-03-18T09:17:43.559Z,22.22
2019-03-18T09:20:17.733Z,20.40
2019-03-18T09:22:47.342Z,22.30
2019-03-18T09:25:16.951Z,19.90
2019-03-18T09:27:46.229Z,20.43
2019-03-18T09:30:18.103Z,15.53
2019-03-18T09:32:48.359Z,19.73
2019-03-18T09:35:17.663Z,20.52
2019-03-18T09:37:47.019Z,16.50
2019-03-18T09:40:16.745Z,16.90
2019-03-18T09:42:46.354Z,15.10
2019-03-18T09:45:16.992Z,14.78
2019-03-18T09:47:46.793Z,13.38
2019-03-18T09:50:16.501Z,18.80
2019-03-18T09:52:45.933Z,12.45
2019-03-18T09:55:15.303Z,15.83
2019-03-18T09:57:44.919Z,16.37
2019-03-18T10:00:16.517Z,24.32
2019-03-18T10:02:45.889Z,17.98
2019-03-18T10:05:15.157Z,13.98
2019-03-18T10:07:44.508Z,15.85
2019-03-18T10:10:14.541Z,17.20
2019-03-18T10:12:44.004Z,15.23
2019-03-18T10:15:14.813Z,13.72
2019-03-18T10:17:44.445Z,13.95
2019-03-18T10:20:14.070Z,22.37
2019-03-18T10:22:43.373Z,13.38
2019-03-18T10:25:12.688Z,16.10
2019-03-18T10:27:42.253Z,12.33
2019-03-18T10:30:13.283Z,14.73
2019-03-18T10:32:42.749Z,15.88
2019-03-18T10:35:12.566Z,11.53
2019-03-18T10:37:41.860Z,6.67
2019-03-18T10:40:14.415Z,8.70
2019-03-18T10:42:43.716Z,9.03
2019-03-18T10:45:13.934Z,14.43
2019-03-18T10:47:43.523Z,11.80
2019-03-18T10:50:17.531Z,8.35
2019-03-18T10:52:46.813Z,8.33
2019-03-18T10:55:16.104Z,8.30
2019-03-18T10:57:45.463Z,9.50
2019-03-18T11:00:17.255Z,7.60
2019-03-18T11:02:47.046Z,7.70
2019-03-18T11:05:16.512Z,10.58
2019-03-18T11:07:45.804Z,8.68
2019-03-18T11:10:16.032Z,12.95
2019-03-18T11:12:45.319Z,6.85
2019-03-18T11:15:16.493Z,8.08
2019-03-18T11:17:46.012Z,7.97
2019-03-18T11:20:16.051Z,11.48
2019-03-18T11:22:45.339Z,8.05
2019-03-18T11:25:15.472Z,5.70
2019-03-18T11:27:44.745Z,10.10
2019-03-18T11:30:16.016Z,8.28
2019-03-18T11:32:45.278Z,6.00
2019-03-18T11:35:14.747Z,10.03
2019-03-18T11:37:44.289Z,10.43
2019-03-18T11:40:18.207Z,10.93
2019-03-18T11:42:48.450Z,16.25
2019-03-18T11:45:18.363Z,13.03
2019-03-18T11:47:47.742Z,9.80
2019-03-18T11:50:18.221Z,11.38
2019-03-18T11:52:47.515Z,5.85
2019-03-18T11:55:24.459Z,16.42
2019-03-18T11:57:53.905Z,8.50
2019-03-18T12:00:26.500Z,9.80
2019-03-18T12:02:55.857Z,7.30
2019-03-18T12:05:26.073Z,7.17
2019-03-18T12:07:55.365Z,12.58
2019-03-18T12:10:25.999Z,8.48
2019-03-18T12:12:55.623Z,9.00
2019-03-18T12:15:27.571Z,9.15
2019-03-18T12:17:56.857Z,12.78
2019-03-18T12:20:27.511Z,7.62
2019-03-18T12:22:57.859Z,11.63
2019-03-18T12:25:27.168Z,11.13
2019-03-18T12:27:56.734Z,16.15
2019-03-18T12:30:28.280Z,9.55
2019-03-18T12:32:57.897Z,11.20
2019-03-18T12:35:27.267Z,15.35
2019-03-18T12:37:57.203Z,11.88
2019-03-18T12:40:26.839Z,14.68
2019-03-18T12:42:56.438Z,9.80
2019-03-18T12:45:25.721Z,12.68
2019-03-18T12:47:55.036Z,10.93
2019-03-18T12:50:43.151Z,7.10
2019-03-18T12:52:57.635Z,12.63
2019-03-18T12:55:26.874Z,12.63
2019-03-18T12:57:56.445Z,15.55
2019-03-18T13:00:27.484Z,12.80
2019-03-18T13:02:57.293Z,8.83
2019-03-18T13:05:26.757Z,14.40
2019-03-18T13:07:56.192Z,8.90
2019-03-18T13:10:25.486Z,7.33
2019-03-18T13:12:54.766Z,14.50
2019-03-18T13:15:24.400Z,8.73
2019-03-18T13:17:53.691Z,8.67
2019-03-18T13:20:23.525Z,12.63
2019-03-18T13:22:54.212Z,11.63
2019-03-18T13:25:23.772Z,6.27
2019-03-18T13:27:53.357Z,10.13
2019-03-18T13:30:23.973Z,6.42
2019-03-18T13:32:53.257Z,3.05
2019-03-18T13:35:22.622Z,3.75
2019-03-18T13:37:51.903Z,8.05
2019-03-18T13:40:21.174Z,7.47
2019-03-18T13:42:50.454Z,10.63
2019-03-18T13:45:21.444Z,6.62
2019-03-18T13:47:51.153Z,7.12
2019-03-18T13:50:23.316Z,5.35
2019-03-18T13:52:52.611Z,8.35
2019-03-18T13:55:21.900Z,5.12
2019-03-18T13:57:51.233Z,8.13
2019-03-18T14:00:21.881Z,6.70
2019-03-18T14:02:51.464Z,7.62
2019-03-18T14:05:20.808Z,6.12
2019-03-18T14:07:59.582Z,7.95
2019-03-18T14:10:22.589Z,6.00
2019-03-18T14:12:52.142Z,5.62
2019-03-18T14:15:22.456Z,6.55
2019-03-18T14:17:52.388Z,6.62
2019-03-18T14:20:23.644Z,9.47
2019-03-18T14:22:52.938Z,8.48
2019-03-18T14:25:23.287Z,7.47
2019-03-18T14:27:52.561Z,4.78
2019-03-18T14:30:23.999Z,7.62
2019-03-18T14:32:53.371Z,13.28
2019-03-18T14:35:22.637Z,8.85
2019-03-18T14:37:51.924Z,5.87
2019-03-18T14:40:22.529Z,7.40
2019-03-18T14:42:52.254Z,7.03
2019-03-18T14:45:25.562Z,9.03
2019-03-18T14:47:54.868Z,7.30
2019-03-18T14:50:24.213Z,10.20
2019-03-18T14:52:53.681Z,5.22
2019-03-18T14:55:23.262Z,9.28
2019-03-18T14:57:52.604Z,4.58
2019-03-18T15:00:22.956Z,6.10
2019-03-18T15:02:52.399Z,8.68
2019-03-18T15:05:21.745Z,5.60
2019-03-18T15:07:51.026Z,14.30
2019-03-18T15:10:22.824Z,11.08
2019-03-18T15:12:52.117Z,23.97
2019-03-18T15:15:21.402Z,13.10
2019-03-18T15:17:50.692Z,9.13
2019-03-18T15:20:24.100Z,11.08
2019-03-18T15:22:53.773Z,11.03
2019-03-18T15:25:26.457Z,7.65
2019-03-18T15:27:56.060Z,9.53
2019-03-18T15:30:25.668Z,11.73
2019-03-18T15:32:54.953Z,9.50
2019-03-18T15:35:24.253Z,13.10
2019-03-18T15:37:53.541Z,4.97
2019-03-18T15:40:29.893Z,4.97
2019-03-18T15:42:59.436Z,6.90
2019-03-18T15:45:29.052Z,10.00
2019-03-18T15:47:58.654Z,11.22
2019-03-18T15:50:27.945Z,7.42
2019-03-18T15:52:57.221Z,6.85
2019-03-18T15:55:26.506Z,7.83
2019-03-18T15:57:56.060Z,5.15
2019-03-18T16:00:28.131Z,6.40
2019-03-18T16:02:57.769Z,5.95
2019-03-18T16:05:27.098Z,8.00
2019-03-18T16:07:56.374Z,4.45
2019-03-18T16:10:25.942Z,5.40
2019-03-18T16:12:55.225Z,6.45
2019-03-18T16:15:24.528Z,8.73
2019-03-18T16:17:54.159Z,5.92
2019-03-18T16:20:27.470Z,10.08
2019-03-18T16:22:56.745Z,7.25
2019-03-18T16:25:26.045Z,6.62
2019-03-18T16:27:55.658Z,6.20
2019-03-18T16:30:24.949Z,7.72
2019-03-18T16:32:54.235Z,5.97
2019-03-18T16:35:23.513Z,8.00
2019-03-18T16:37:53.140Z,8.30
2019-03-18T16:40:23.383Z,7.03
2019-03-18T16:42:52.672Z,16.07
2019-03-18T16:45:22.021Z,13.03
2019-03-18T16:47:52.733Z,5.28
2019-03-18T16:50:26.732Z,7.58
2019-03-18T16:52:56.352Z,5.37
2019-03-18T16:55:25.953Z,14.20
2019-03-18T16:57:55.568Z,9.55
2019-03-18T17:00:25.887Z,6.28
2019-03-18T17:02:55.157Z,5.80
2019-03-18T17:05:24.457Z,5.83
2019-03-18T17:07:54.316Z,7.65
2019-03-18T17:10:24.028Z,11.45
2019-03-18T17:12:53.329Z,6.58
2019-03-18T17:15:23.695Z,4.83
2019-03-18T17:17:52.971Z,7.87
2019-03-18T17:20:22.560Z,7.08
2019-03-18T17:22:51.855Z,5.65
2019-03-18T17:25:24.310Z,14.65
2019-03-18T17:27:53.775Z,10.90
2019-03-18T17:30:26.314Z,11.78
2019-03-18T17:32:54.313Z,6.40
2019-03-18T17:35:23.605Z,14.53
2019-03-18T17:37:52.884Z,19.35
2019-03-18T17:40:22.192Z,15.05
2019-03-18T17:42:51.493Z,20.12
2019-03-18T17:45:20.801Z,21.97
2019-03-18T17:47:50.079Z,16.90
2019-03-18T17:50:29.865Z,18.65
2019-03-18T17:53:03.995Z,17.00
2019-03-18T17:55:30.793Z,15.28
2019-03-18T17:58:00.322Z,20.68
2019-03-18T18:00:32.616Z,13.75
2019-03-18T18:03:02.480Z,13.38
2019-03-18T18:05:32.092Z,12.70
2019-03-18T18:08:01.725Z,16.48
2019-03-18T18:10:30.997Z,17.85
2019-03-18T18:13:00.291Z,19.67
2019-03-18T18:15:29.580Z,13.65
2019-03-18T18:17:59.212Z,11.70
2019-03-18T18:20:28.499Z,12.93
2019-03-18T18:22:57.795Z,8.80
2019-03-18T18:25:27.067Z,14.93
2019-03-18T18:27:56.364Z,11.75
2019-03-18T18:30:25.920Z,16.55
2019-03-18T18:32:55.205Z,11.95
2019-03-18T18:35:24.476Z,10.53
2019-03-18T18:37:54.035Z,7.33
2019-03-18T18:40:32.264Z,12.30
2019-03-18T18:43:01.849Z,12.63
2019-03-18T18:45:31.445Z,12.85
2019-03-18T18:48:00.744Z,8.50
2019-03-18T18:50:30.006Z,9.98
2019-03-18T18:52:59.558Z,12.07
2019-03-18T18:55:28.846Z,8.78
2019-03-18T18:57:58.572Z,8.05
2019-03-18T19:00:27.844Z,12.25
2019-03-18T19:02:57.366Z,9.90
2019-03-18T19:05:27.011Z,11.33
2019-03-18T19:07:57.709Z,8.63
2019-03-18T19:10:27.428Z,8.98
2019-03-18T19:12:56.705Z,13.83
2019-03-18T19:15:31.152Z,10.13
2019-03-18T19:18:00.452Z,10.50
2019-03-18T19:20:29.719Z,8.63
2019-03-18T19:22:59.012Z,11.40
2019-03-18T19:25:28.298Z,9.80
2019-03-18T19:27:57.853Z,11.43
2019-03-18T19:30:27.125Z,11.93
2019-03-18T19:32:56.684Z,9.83
2019-03-18T19:35:28.620Z,11.28
2019-03-18T19:37:57.098Z,11.35
2019-03-18T19:40:26.351Z,12.82
2019-03-18T19:42:55.643Z,9.35
2019-03-18T19:45:26.653Z,11.35
2019-03-18T19:47:55.936Z,10.93
2019-03-18T19:50:26.613Z,11.10
2019-03-18T19:52:55.929Z,11.75
2019-03-18T19:55:25.197Z,10.20
2019-03-18T19:57:54.803Z,13.68
2019-03-18T20:00:25.238Z,16.00
2019-03-18T20:02:54.621Z,15.23
2019-03-18T20:05:24.757Z,9.38
2019-03-18T20:07:54.036Z,7.65
2019-03-18T20:10:23.506Z,10.13
2019-03-18T20:12:52.765Z,7.78
2019-03-18T20:15:22.132Z,11.15
2019-03-18T20:17:51.411Z,11.65
2019-03-18T20:20:21.909Z,11.22
2019-03-18T20:22:51.491Z,12.03
2019-03-18T20:25:20.788Z,10.28
2019-03-18T20:27:50.072Z,13.98
2019-03-18T20:30:20.388Z,12.82
2019-03-18T20:32:49.678Z,17.85
2019-03-18T20:35:21.290Z,12.23
2019-03-18T20:37:52.132Z,10.35
2019-03-18T20:40:23.034Z,9.70
2019-03-18T20:42:52.328Z,11.78
2019-03-18T20:45:23.881Z,12.58
2019-03-18T20:47:53.155Z,11.83
2019-03-18T20:50:23.391Z,11.60
2019-03-18T20:52:52.685Z,10.23
2019-03-18T20:55:22.936Z,10.63
2019-03-18T20:57:52.216Z,9.05
2019-03-18T21:00:22.279Z,11.45
2019-03-18T21:02:51.553Z,14.07
2019-03-18T21:05:20.826Z,7.95
2019-03-18T21:07:50.383Z,16.42
2019-03-18T21:10:20.953Z,13.20
2019-03-18T21:12:50.300Z,11.55
2019-03-18T21:15:19.910Z,10.08
2019-03-18T21:17:49.178Z,7.58
2019-03-18T21:20:20.776Z,9.55
2019-03-18T21:22:50.059Z,6.70
2019-03-18T21:25:19.333Z,13.15
2019-03-18T21:27:48.622Z,9.93
2019-03-18T21:30:21.597Z,14.98
2019-03-18T21:32:52.141Z,12.75
2019-03-18T21:35:21.554Z,9.43
2019-03-18T21:37:50.824Z,8.88
2019-03-18T21:40:20.845Z,8.08
2019-03-18T21:42:50.117Z,9.05
2019-03-18T21:45:23.559Z,15.55
2019-03-18T21:47:52.839Z,11.08
2019-03-18T21:50:23.241Z,9.03
2019-03-18T21:52:52.501Z,7.80
2019-03-18T21:55:21.778Z,12.25
2019-03-18T21:57:51.355Z,8.55
2019-03-18T22:00:23.639Z,10.50
2019-03-18T22:02:53.003Z,14.07
2019-03-18T22:05:22.283Z,9.83
2019-03-18T22:07:51.643Z,5.75
2019-03-18T22:10:21.294Z,7.95
2019-03-18T22:12:50.566Z,13.65
2019-03-18T22:15:19.870Z,7.28
2019-03-18T22:17:49.131Z,9.05
2019-03-18T22:20:20.325Z,13.30
2019-03-18T22:22:49.599Z,6.10
2019-03-18T22:25:18.895Z,13.65
2019-03-18T22:27:48.485Z,14.13
2019-03-18T22:30:18.597Z,11.45
2019-03-18T22:32:48.049Z,9.78
2019-03-18T22:35:17.831Z,7.97
2019-03-18T22:37:47.101Z,6.25
2019-03-18T22:40:17.309Z,10.00
2019-03-18T22:42:46.852Z,9.85
2019-03-18T22:45:16.876Z,10.60
2019-03-18T22:47:46.219Z,9.18
2019-03-18T22:50:17.244Z,11.25
2019-03-18T22:52:46.541Z,11.73
2019-03-18T22:55:16.077Z,9.80
2019-03-18T22:57:45.350Z,8.63
2019-03-18T23:00:25.901Z,9.28
2019-03-18T23:02:56.349Z,9.53
2019-03-18T23:05:25.630Z,9.50
2019-03-18T23:07:55.231Z,8.45
2019-03-18T23:10:24.827Z,12.47
2019-03-18T23:12:54.160Z,10.20
2019-03-18T23:15:23.858Z,7.08
2019-03-18T23:17:53.366Z,14.85
2019-03-18T23:20:22.701Z,12.80
2019-03-18T23:22:51.989Z,10.45
2019-03-18T23:25:21.245Z,9.13
2019-03-18T23:27:50.754Z,9.15
2019-03-18T23:30:20.032Z,7.15
2019-03-18T23:32:49.324Z,12.33
2019-03-18T23:35:18.590Z,8.85
2019-03-18T23:37:47.871Z,9.50
2019-03-18T23:40:17.131Z,8.60
2019-03-18T23:42:46.424Z,9.55
2019-03-18T23:45:16.074Z,8.08
2019-03-18T23:47:45.665Z,9.85
2019-03-18T23:50:15.975Z,8.20
2019-03-18T23:52:45.264Z,11.70
2019-03-18T23:55:19.372Z,22.17
2019-03-18T23:57:46.713Z,8.50
